createdAt,value
2019-04-21T00:00:54.164Z,94378.83
2019-04-21T00:15:58.948Z,94388.91
2019-04-21T00:31:15.322Z,94388.25
2019-04-21T00:46:12.302Z,94387.68
2019-04-21T01:01:32.926Z,94374.92
2019-04-21T01:16:39.604Z,94369.58
2019-04-21T01:31:36.496Z,94370.06
2019-04-21T01:46:39.489Z,94347.72
2019-04-21T02:01:47.193Z,94332.59
2019-04-21T02:16:54.182Z,94323.58
2019-04-21T02:47:16.769Z,94320.02
2019-04-21T03:02:39.085Z,94313.41
2019-04-21T03:33:16.564Z,94311.18
2019-04-21T04:18:39.338Z,94298.47
2019-04-21T04:33:48.527Z,94302.08
2019-04-21T04:48:59.403Z,94301.73
2019-04-21T05:04:00.501Z,94289.67
2019-04-21T05:19:16.365Z,94305.52
2019-04-21T05:34:03.026Z,94303.32
2019-04-21T05:49:10.575Z,94295.22
2019-04-21T06:04:34.389Z,94299.36
2019-04-21T06:19:35.162Z,94292.50
2019-04-21T06:34:45.589Z,94285.86
2019-04-21T06:49:32.696Z,94286.50
2019-04-21T07:20:03.821Z,94288.02
2019-04-21T07:34:48.049Z,94283.27
2019-04-21T07:49:59.188Z,94274.69
2019-04-21T08:05:07.847Z,94267.95
2019-04-21T08:20:09.233Z,94254.13
2019-04-21T08:35:34.375Z,94257.56
2019-04-21T08:50:15.348Z,94233.40
2019-04-21T09:05:27.746Z,94222.09
2019-04-21T09:20:26.563Z,94208.54
2019-04-21T09:35:16.939Z,94189.03
2019-04-21T09:50:19.913Z,94170.85
2019-04-21T10:05:25.761Z,94157.57
2019-04-21T10:20:30.795Z,94139.11
2019-04-21T10:35:37.055Z,94119.80
2019-04-21T10:50:41.148Z,94101.82
2019-04-21T11:05:44.999Z,94080.36
2019-04-21T11:20:48.876Z,94075.08
2019-04-21T11:35:53.178Z,94065.12
2019-04-21T11:50:57.298Z,94047.77
2019-04-21T12:06:01.598Z,94041.86
2019-04-21T12:21:09.389Z,94027.81
2019-04-21T12:36:14.253Z,94005.38
2019-04-21T12:51:19.512Z,93997.14
2019-04-21T13:06:23.518Z,93983.75
2019-04-21T13:21:26.189Z,93974.14
2019-04-21T13:36:30.083Z,93956.87
2019-04-21T13:51:34.114Z,93941.90
2019-04-21T14:06:38.287Z,93933.19
2019-04-21T14:21:41.325Z,93923.01
2019-04-21T14:36:44.612Z,93900.11
2019-04-21T14:51:50.065Z,93900.17
2019-04-21T15:06:55.046Z,93887.28
2019-04-21T15:21:58.731Z,93881.11
2019-04-21T15:37:02.278Z,93863.97
2019-04-21T15:52:04.832Z,93855.45
2019-04-21T16:07:07.796Z,93849.63
2019-04-21T16:22:10.842Z,93849.22
2019-04-21T16:37:13.906Z,93846.05
2019-04-21T16:52:20.387Z,93831.03
2019-04-21T17:07:24.134Z,93830.95
2019-04-21T17:22:28.108Z,93838.77
2019-04-21T17:37:34.495Z,93851.03
2019-04-21T17:52:45.931Z,93855.57
2019-04-21T18:08:11.416Z,93866.31
2019-04-21T18:22:59.066Z,93865.52
2019-04-21T18:38:15.779Z,93870.62
2019-04-21T19:09:08.654Z,93891.33
2019-04-21T19:24:17.850Z,93902.31
2019-04-21T19:39:06.509Z,93905.19
2019-04-21T19:54:15.472Z,93885.55
2019-04-21T20:09:28.342Z,93875.38
2019-04-21T20:24:17.621Z,93860.42
2019-04-21T20:39:23.253Z,93862.08
2019-04-21T20:54:43.709Z,93861.53
2019-04-21T21:09:52.366Z,93861.45
2019-04-21T21:24:53.421Z,93860.62
2019-04-21T21:40:03.648Z,93871.47
2019-04-21T21:54:51.882Z,93857.55
2019-04-21T22:09:58.018Z,93848.03
2019-04-21T22:25:10.047Z,93856.02
2019-04-21T22:40:16.666Z,93849.89
2019-04-21T22:55:19.333Z,93846.77
2019-04-21T23:10:19.613Z,93829.09
2019-04-21T23:25:41.687Z,93821.31
2019-04-21T23:40:31.488Z,93820.88
2019-04-21T23:55:35.036Z,93807.13
